Time;durP1;ratioP1;P1;durP2;ratioP2;P2;SDS_P1;SDS_P2;PMS_P1;PMS_P2;Temp;Humidity;BMP_temperature;BMP_pressure;BME280_temperature;BME280_humidity;BME280_pressure;Samples;Min_cycle;Max_cycle;Signal;HPM_P1;HPM_P2
2022/07/27 00:00:10;;;;;;;3.92;2.28;;;;;;;15.78;63.94;101903.09;5074581;28;20062;-66
2022/07/27 00:02:37;;;;;;;4.57;2.50;;;;;;;15.94;63.55;101910.94;5092508;28;20120;-65
2022/07/27 00:05:03;;;;;;;4.72;2.55;;;;;;;15.90;63.95;101907.63;5090986;28;20024;-64
2022/07/27 00:07:29;;;;;;;5.05;2.60;;;;;;;15.81;63.88;101906.44;5091391;28;20687;-66
2022/07/27 00:09:54;;;;;;;6.28;2.97;;;;;;;15.93;63.99;101895.81;5090785;28;20028;-64
2022/07/27 00:12:20;;;;;;;6.40;2.30;;;;;;;15.95;63.87;101902.81;5090697;28;20122;-64
2022/07/27 00:14:46;;;;;;;8.75;2.70;;;;;;;15.86;64.13;101898.94;5092041;28;20051;-66
2022/07/27 00:17:11;;;;;;;5.28;3.05;;;;;;;15.84;63.77;101889.28;5094603;28;20048;-65
2022/07/27 00:19:37;;;;;;;5.30;2.80;;;;;;;15.93;64.11;101891.31;5091899;28;20016;-64
2022/07/27 00:22:05;;;;;;;3.95;2.30;;;;;;;15.86;64.33;101901.63;5092035;28;20540;-66
2022/07/27 00:24:31;;;;;;;6.00;2.72;;;;;;;15.81;64.54;101902.91;5089843;28;20621;-66
2022/07/27 00:26:56;;;;;;;7.00;2.95;;;;;;;15.72;64.81;101898.16;5089761;28;20047;-64
2022/07/27 00:29:21;;;;;;;3.95;2.50;;;;;;;15.71;64.91;101897.31;5056372;28;20063;-64
2022/07/27 00:31:47;;;;;;;4.93;2.95;;;;;;;15.60;65.05;101906.03;5095551;28;20031;-65
2022/07/27 00:34:14;;;;;;;5.97;2.70;;;;;;;15.61;65.10;101896.16;5077038;28;20064;-64
2022/07/27 00:36:40;;;;;;;6.93;3.33;;;;;;;15.54;65.20;101908.28;5056782;28;20475;-64
2022/07/27 00:39:05;;;;;;;6.13;2.92;;;;;;;15.43;65.70;101900.94;5072249;28;20063;-66
2022/07/27 00:41:31;;;;;;;5.00;3.55;;;;;;;15.41;65.77;101900.16;5072969;28;20039;-64
2022/07/27 00:43:58;;;;;;;6.32;3.20;;;;;;;15.43;65.62;101896.44;5074673;28;20468;-66
2022/07/27 00:46:25;;;;;;;4.97;3.00;;;;;;;15.32;66.17;101895.44;5088766;28;20028;-64
2022/07/27 00:48:51;;;;;;;5.13;3.35;;;;;;;15.34;65.88;101894.38;5090291;28;20042;-64
2022/07/27 00:51:18;;;;;;;6.45;3.22;;;;;;;15.24;66.20;101887.91;5091508;28;20024;-65
2022/07/27 00:53:45;;;;;;;5.25;3.00;;;;;;;15.27;66.06;101882.34;5091140;28;20056;-66
2022/07/27 00:56:11;;;;;;;5.65;2.90;;;;;;;15.29;65.80;101890.28;5090850;28;20054;-66
2022/07/27 00:58:38;;;;;;;8.80;3.42;;;;;;;15.16;66.21;101887.56;5091665;28;20511;-66
2022/07/27 01:01:04;;;;;;;5.00;3.10;;;;;;;15.28;66.17;101897.47;5089412;28;20024;-64
2022/07/27 01:03:30;;;;;;;7.75;3.30;;;;;;;15.23;66.41;101888.84;5092571;28;20035;-64
2022/07/27 01:05:56;;;;;;;4.03;2.90;;;;;;;15.00;66.63;101882.34;5091711;28;20039;-64
2022/07/27 01:08:24;;;;;;;5.80;3.00;;;;;;;15.09;66.53;101895.13;5091319;28;20132;-66
2022/07/27 01:10:51;;;;;;;5.32;2.95;;;;;;;14.94;66.80;101882.72;5092408;28;20048;-65
2022/07/27 01:13:17;;;;;;;4.32;2.90;;;;;;;15.01;66.47;101892.09;5089837;28;20069;-64
2022/07/27 01:15:44;;;;;;;6.70;3.10;;;;;;;14.98;66.53;101892.28;5090948;28;20487;-64
2022/07/27 01:18:26;;;;;;;5.97;2.95;;;;;;;14.97;66.62;101890.56;5089155;28;20042;-64
2022/07/27 01:20:52;;;;;;;6.25;3.35;;;;;;;14.75;67.11;101883.06;5091322;28;20182;-64
2022/07/27 01:23:18;;;;;;;5.30;3.35;;;;;;;14.86;66.93;101890.41;5090142;28;20028;-65
2022/07/27 01:25:45;;;;;;;4.60;3.28;;;;;;;14.74;67.13;101884.88;5088466;28;20486;-64
2022/07/27 01:28:10;;;;;;;8.05;3.22;;;;;;;14.77;66.94;101892.72;5090666;28;20032;-64
2022/07/27 01:30:38;;;;;;;4.97;3.20;;;;;;;14.65;67.07;101877.44;5091614;28;20025;-64
2022/07/27 01:33:08;;;;;;;6.00;3.22;;;;;;;14.61;67.35;101888.44;5088304;28;20024;-64
2022/07/27 01:35:38;;;;;;;5.75;3.25;;;;;;;14.63;67.23;101894.56;5089830;28;20525;-64
2022/07/27 01:38:05;;;;;;;3.53;3.15;;;;;;;14.63;67.51;101894.56;5088249;28;20364;-66
2022/07/27 01:40:32;;;;;;;4.93;3.10;;;;;;;14.59;67.62;101891.22;5089343;28;20024;-64
2022/07/27 01:42:58;;;;;;;3.63;3.15;;;;;;;14.56;67.61;101890.53;5074427;28;20097;-66
2022/07/27 01:45:23;;;;;;;4.90;3.53;;;;;;;14.51;67.78;101888.13;5094119;28;20036;-64
2022/07/27 01:47:49;;;;;;;4.68;3.40;;;;;;;14.47;67.88;101887.47;5098384;28;20084;-66
2022/07/27 01:50:15;;;;;;;3.85;3.10;;;;;;;14.44;67.99;101882.31;5089906;28;20405;-65
2022/07/27 01:52:40;;;;;;;3.78;3.20;;;;;;;14.22;68.50;101885.44;5090744;28;20069;-66
2022/07/27 01:55:09;;;;;;;6.90;3.47;;;;;;;14.30;68.34;101885.84;5088868;28;20040;-64
2022/07/27 01:57:36;;;;;;;4.85;2.90;;;;;;;14.30;68.23;101883.16;5090401;28;20032;-64
2022/07/27 02:00:09;;;;;;;5.22;3.08;;;;;;;14.24;68.60;101880.88;5091577;28;20121;-64
2022/07/27 02:02:34;;;;;;;6.38;3.35;;;;;;;14.23;68.49;101881.78;5088553;28;20032;-66
2022/07/27 02:05:00;;;;;;;5.10;3.22;;;;;;;14.16;68.70;101877.78;5091242;28;20028;-66
2022/07/27 02:07:25;;;;;;;5.28;3.50;;;;;;;14.11;68.71;101887.06;5092976;28;20364;-64
2022/07/27 02:09:51;;;;;;;6.22;3.28;;;;;;;14.02;68.87;101878.63;5092893;28;20509;-64
2022/07/27 02:12:34;;;;;;;5.25;3.67;;;;;;;14.00;69.30;101877.00;5096965;28;20023;-64
2022/07/27 02:15:26;;;;;;;5.88;3.60;;;;;;;14.02;69.27;101880.44;5092505;28;20031;-64
2022/07/27 02:17:53;;;;;;;4.30;3.45;;;;;;;14.06;69.13;101885.53;5089631;28;20091;-64
2022/07/27 02:20:21;;;;;;;4.93;3.40;;;;;;;14.06;68.96;101877.50;5093245;28;20089;-64
2022/07/27 02:22:48;;;;;;;4.63;3.13;;;;;;;13.84;69.22;101863.72;5093695;28;20502;-64
2022/07/27 02:25:15;;;;;;;6.72;3.58;;;;;;;13.89;69.38;101871.47;5094442;28;20032;-64
2022/07/27 02:27:42;;;;;;;7.57;3.08;;;;;;;13.86;69.17;101862.66;5078389;28;20085;-64
2022/07/27 02:30:09;;;;;;;5.97;3.17;;;;;;;13.88;69.59;101861.69;5092325;28;20030;-66
2022/07/27 02:32:37;;;;;;;4.65;3.28;;;;;;;13.75;69.53;101865.13;5094018;28;20069;-64
2022/07/27 02:35:03;;;;;;;3.88;3.20;;;;;;;13.76;69.33;101864.16;5096917;28;20417;-64
2022/07/27 02:37:29;;;;;;;3.40;2.80;;;;;;;13.71;69.51;101874.28;5093662;28;20059;-66
2022/07/27 02:39:57;;;;;;;4.32;3.30;;;;;;;13.66;69.48;101859.47;5092764;28;20046;-64
2022/07/27 02:42:23;;;;;;;4.30;3.42;;;;;;;13.75;69.52;101869.63;5099187;28;20043;-64
2022/07/27 02:44:48;;;;;;;6.35;3.45;;;;;;;13.63;70.28;101863.19;5093669;28;20399;-64
2022/07/27 02:47:16;;;;;;;4.15;3.33;;;;;;;13.59;70.12;101864.34;5092336;28;20196;-64
2022/07/27 02:49:42;;;;;;;4.00;3.40;;;;;;;13.55;70.34;101865.44;5093680;28;20036;-65
2022/07/27 02:52:08;;;;;;;6.25;3.88;;;;;;;13.54;70.18;101871.75;5092097;28;20024;-64
2022/07/27 02:54:34;;;;;;;6.15;3.58;;;;;;;13.56;70.11;101872.50;5076157;28;20028;-64
2022/07/27 02:57:01;;;;;;;7.32;3.72;;;;;;;13.45;70.50;101862.47;5092345;28;20032;-64
2022/07/27 02:59:27;;;;;;;4.63;3.72;;;;;;;13.47;70.54;101865.94;5094842;28;20126;-65
2022/07/27 03:01:52;;;;;;;4.05;3.65;;;;;;;13.51;70.73;101862.09;5092381;28;20110;-64
2022/07/27 03:04:18;;;;;;;5.40;3.47;;;;;;;13.49;70.62;101860.47;5095523;28;20047;-64
2022/07/27 03:06:46;;;;;;;7.25;3.75;;;;;;;13.39;70.54;101866.34;5075950;28;20128;-64
2022/07/27 03:09:16;;;;;;;4.15;3.55;;;;;;;13.35;70.81;101872.84;5089187;28;20040;-64
2022/07/27 03:11:42;;;;;;;7.93;3.65;;;;;;;13.42;70.56;101867.16;5091149;28;20026;-65
2022/07/27 03:14:07;;;;;;;5.38;3.80;;;;;;;13.33;70.87;101874.75;5075120;28;20035;-64
2022/07/27 03:16:33;;;;;;;4.88;3.55;;;;;;;13.25;70.97;101879.66;5091773;28;20085;-65
2022/07/27 03:19:01;;;;;;;4.05;3.50;;;;;;;13.27;70.89;101871.56;5091550;28;20028;-64
2022/07/27 03:21:27;;;;;;;3.55;3.20;;;;;;;13.28;71.17;101879.47;5093207;28;20114;-65
2022/07/27 03:23:52;;;;;;;3.83;3.53;;;;;;;13.21;70.96;101863.84;5094102;28;20123;-64
2022/07/27 03:26:18;;;;;;;4.95;4.15;;;;;;;13.26;70.87;101876.03;5089146;28;20024;-64
2022/07/27 03:28:46;;;;;;;5.70;4.03;;;;;;;13.26;70.96;101872.50;5097505;28;20497;-64
2022/07/27 03:31:12;;;;;;;6.15;3.67;;;;;;;13.22;70.97;101870.94;5090903;28;20376;-66
2022/07/27 03:33:37;;;;;;;4.80;3.85;;;;;;;13.26;71.03;101872.50;5089742;28;20031;-65
2022/07/27 03:36:04;;;;;;;6.18;4.07;;;;;;;13.24;70.90;101871.72;5073872;28;20036;-64
2022/07/27 03:38:32;;;;;;;4.10;3.65;;;;;;;13.18;71.07;101873.78;5091111;28;20106;-65
2022/07/27 03:40:58;;;;;;;4.03;3.45;;;;;;;13.10;71.17;101854.66;5092322;28;20059;-65
2022/07/27 03:43:24;;;;;;;7.53;3.60;;;;;;;13.09;71.10;101866.31;5092336;28;20024;-64
2022/07/27 03:45:49;;;;;;;4.53;4.03;;;;;;;13.13;70.73;101878.53;5074756;28;20032;-64
2022/07/27 03:48:15;;;;;;;4.45;3.20;;;;;;;12.99;70.94;101873.09;5094362;28;20039;-64
2022/07/27 03:50:41;;;;;;;6.90;4.05;;;;;;;13.03;71.17;101873.78;5091738;28;20073;-65
2022/07/27 03:53:06;;;;;;;8.77;3.97;;;;;;;13.04;71.40;101878.19;5090936;28;20032;-64
2022/07/27 03:55:32;;;;;;;6.07;3.72;;;;;;;13.09;71.57;101876.13;5073902;28;20032;-64
2022/07/27 03:57:58;;;;;;;5.90;4.03;;;;;;;13.10;72.07;101876.03;5090174;28;20036;-64
2022/07/27 04:00:24;;;;;;;4.90;3.85;;;;;;;13.09;72.30;101879.66;5090738;28;20028;-65
2022/07/27 04:02:50;;;;;;;4.30;3.67;;;;;;;13.14;72.10;101882.03;5093593;28;20368;-64
2022/07/27 04:05:16;;;;;;;5.65;4.22;;;;;;;13.13;72.38;101880.34;5073373;28;20028;-65
2022/07/27 04:07:44;;;;;;;5.35;4.30;;;;;;;13.17;72.75;101881.88;5092002;28;20039;-64
2022/07/27 04:10:10;;;;;;;5.55;3.80;;;;;;;13.17;72.99;101879.19;5091228;28;20451;-65
2022/07/27 04:12:36;;;;;;;5.82;4.10;;;;;;;13.22;73.14;101874.47;5092386;28;20798;-65
2022/07/27 04:15:03;;;;;;;7.82;4.15;;;;;;;13.28;73.36;101873.28;5091407;28;20116;-65
2022/07/27 04:17:29;;;;;;;5.63;4.43;;;;;;;13.18;73.52;101876.47;5090596;28;20056;-64
2022/07/27 04:19:54;;;;;;;5.30;4.20;;;;;;;13.18;73.39;101863.09;5089582;28;20486;-64
2022/07/27 04:22:20;;;;;;;4.78;3.42;;;;;;;13.22;73.48;101882.47;5074066;28;20035;-64
2022/07/27 04:24:45;;;;;;;4.93;3.90;;;;;;;13.23;73.44;101876.16;5096087;28;20085;-65
2022/07/27 04:27:12;;;;;;;4.53;3.60;;;;;;;13.25;73.42;101879.66;5089001;28;20089;-65
2022/07/27 04:29:37;;;;;;;3.90;3.55;;;;;;;13.28;73.35;101878.63;5058515;28;20069;-64
2022/07/27 04:32:05;;;;;;;5.82;4.13;;;;;;;13.29;73.69;101883.00;5089241;28;20035;-64
2022/07/27 04:34:32;;;;;;;7.25;4.25;;;;;;;13.30;73.85;101888.28;5092025;28;20103;-64
2022/07/27 04:36:58;;;;;;;4.40;4.00;;;;;;;13.32;73.83;101886.34;5091712;28;20126;-64
2022/07/27 04:39:23;;;;;;;7.70;4.30;;;;;;;13.36;73.90;101887.06;5056961;28;20118;-64
2022/07/27 04:41:51;;;;;;;5.10;3.67;;;;;;;13.32;74.27;101886.34;5091278;28;20063;-64
2022/07/27 04:44:16;;;;;;;6.75;4.57;;;;;;;13.36;74.23;101885.25;5073026;28;20044;-65
2022/07/27 04:46:42;;;;;;;7.78;4.28;;;;;;;13.38;74.32;101890.47;5088108;28;20553;-64
2022/07/27 04:49:07;;;;;;;6.25;4.45;;;;;;;13.39;74.39;101894.91;5089451;28;20395;-64
2022/07/27 04:51:34;;;;;;;5.15;4.40;;;;;;;13.36;74.92;101895.09;5091748;28;20024;-65
2022/07/27 04:53:59;;;;;;;6.53;4.30;;;;;;;13.46;74.71;101890.91;5089417;28;20024;-64
2022/07/27 04:56:25;;;;;;;4.82;4.32;;;;;;;13.49;74.65;101897.88;5090011;28;20089;-64
2022/07/27 04:58:51;;;;;;;6.85;4.30;;;;;;;13.37;75.29;101900.31;5090717;28;20047;-64
2022/07/27 05:01:17;;;;;;;7.03;4.07;;;;;;;13.49;74.84;101905.91;5090924;28;20123;-64
2022/07/27 05:03:44;;;;;;;6.18;4.78;;;;;;;13.53;74.93;101907.44;5089992;28;20485;-64
2022/07/27 05:06:10;;;;;;;7.45;4.32;;;;;;;13.59;74.84;101905.28;5089653;28;20028;-65
2022/07/27 05:08:35;;;;;;;9.38;4.50;;;;;;;13.63;74.77;101906.81;5091491;28;20043;-64
2022/07/27 05:11:01;;;;;;;8.38;4.57;;;;;;;13.55;74.81;101901.06;5072552;28;20039;-64
2022/07/27 05:13:28;;;;;;;7.53;4.50;;;;;;;13.61;75.11;101908.72;5090088;28;20040;-64
2022/07/27 05:15:53;;;;;;;6.20;4.25;;;;;;;13.68;75.05;101911.03;5091199;28;20066;-64
2022/07/27 05:18:21;;;;;;;7.60;4.55;;;;;;;13.74;75.16;101916.88;5103879;28;20055;-65
2022/07/27 05:20:49;;;;;;;5.57;4.38;;;;;;;13.82;74.94;101911.94;5090377;28;20533;-65
2022/07/27 05:23:15;;;;;;;6.75;4.30;;;;;;;13.86;74.95;101916.16;5078058;28;20102;-64
2022/07/27 05:25:41;;;;;;;11.52;5.03;;;;;;;13.90;74.72;101921.31;5089717;28;20407;-64
2022/07/27 05:28:10;;;;;;;6.88;4.60;;;;;;;13.91;74.70;101926.56;5073491;28;20040;-66
2022/07/27 05:30:36;;;;;;;8.85;5.25;;;;;;;14.07;74.63;101930.03;5089010;28;20020;-64
2022/07/27 05:33:03;;;;;;;9.13;7.15;;;;;;;14.07;74.37;101935.41;5089773;28;20038;-64
2022/07/27 05:35:29;;;;;;;10.98;6.10;;;;;;;14.09;73.73;101936.19;5092051;28;20028;-66
2022/07/27 05:37:54;;;;;;;13.23;6.70;;;;;;;14.09;73.79;101925.47;5074010;28;20088;-65
2022/07/27 05:40:20;;;;;;;9.10;5.50;;;;;;;14.25;73.72;101925.38;5089951;28;20035;-65
2022/07/27 05:42:48;;;;;;;9.23;5.30;;;;;;;14.27;73.55;101920.81;5078216;28;20410;-65
2022/07/27 05:45:14;;;;;;;9.60;4.72;;;;;;;14.40;73.41;101920.06;5096888;28;20035;-64
2022/07/27 05:47:39;;;;;;;8.93;4.80;;;;;;;14.53;72.95;101924.59;5094894;28;20395;-65
2022/07/27 05:50:05;;;;;;;11.80;4.80;;;;;;;14.59;73.13;101930.50;5077735;28;20032;-65
2022/07/27 05:52:31;;;;;;;10.57;4.75;;;;;;;14.72;72.54;101929.63;5095641;28;20055;-64
2022/07/27 05:54:56;;;;;;;8.00;4.50;;;;;;;14.85;72.44;101937.75;5094332;28;20394;-65
2022/07/27 05:57:22;;;;;;;10.88;4.32;;;;;;;14.91;72.67;101936.50;5095077;28;20071;-65
2022/07/27 05:59:47;;;;;;;8.38;4.30;;;;;;;14.96;72.26;101939.75;5092217;28;20052;-65
2022/07/27 06:02:12;;;;;;;6.25;3.72;;;;;;;14.96;71.50;101929.88;5075060;28;20361;-66
2022/07/27 06:04:40;;;;;;;9.18;4.00;;;;;;;15.13;70.99;101938.66;5095383;28;20550;-66
2022/07/27 06:09:51;;;;;;;7.65;3.63;;;;;;;15.45;69.84;101936.56;5097278;28;20046;-66
2022/07/27 06:12:16;;;;;;;6.10;3.25;;;;;;;15.58;69.57;101939.28;5092572;28;20028;-65
2022/07/27 06:14:44;;;;;;;6.65;3.20;;;;;;;15.65;69.21;101946.81;5090762;28;21226;-65
2022/07/27 06:17:10;;;;;;;7.68;3.28;;;;;;;15.74;69.01;101948.06;5095018;28;20028;-65
2022/07/27 06:19:38;;;;;;;7.50;3.22;;;;;;;15.82;68.37;101951.06;5073932;28;20533;-66
2022/07/27 06:22:05;;;;;;;5.85;3.25;;;;;;;15.97;67.92;101948.31;5094356;28;20032;-66
2022/07/27 06:24:31;;;;;;;7.72;3.30;;;;;;;16.09;66.83;101942.13;5091076;28;20066;-66
2022/07/27 06:26:57;;;;;;;5.85;2.60;;;;;;;16.19;66.48;101945.03;5092952;28;20055;-65
2022/07/27 06:29:23;;;;;;;7.25;3.10;;;;;;;16.17;66.09;101942.44;5094096;28;20024;-66
2022/07/27 06:31:50;;;;;;;7.43;2.90;;;;;;;16.20;66.79;101949.41;5096110;28;20058;-66
2022/07/27 06:34:16;;;;;;;5.88;2.90;;;;;;;16.34;65.47;101944.81;5096391;28;20028;-65
2022/07/27 06:36:43;;;;;;;6.00;3.22;;;;;;;16.39;65.93;101947.19;5107440;28;20401;-65
2022/07/27 06:39:12;;;;;;;7.35;2.97;;;;;;;16.42;65.88;101946.13;5090627;28;20024;-66
2022/07/27 06:41:37;;;;;;;7.03;2.67;;;;;;;16.49;66.05;101947.38;5094932;28;20106;-65
2022/07/27 06:44:03;;;;;;;5.80;3.13;;;;;;;16.50;65.24;101944.59;5058742;28;20124;-66
2022/07/27 06:46:29;;;;;;;6.70;2.80;;;;;;;16.62;65.15;101950.94;5075381;28;20077;-65
2022/07/27 06:48:55;;;;;;;7.47;2.70;;;;;;;16.71;64.61;101955.66;5091840;28;20036;-65
2022/07/27 06:51:21;;;;;;;6.22;2.33;;;;;;;16.80;63.74;101938.91;5090456;28;20032;-66
2022/07/27 06:53:52;;;;;;;4.00;2.53;;;;;;;16.92;63.64;101945.22;5092778;28;20023;-65
2022/07/27 06:56:18;;;;;;;3.72;2.10;;;;;;;17.05;62.79;101944.31;5091323;28;20024;-65
2022/07/27 06:58:44;;;;;;;6.10;2.33;;;;;;;17.26;62.13;101953.50;5100111;28;20050;-65
2022/07/27 07:01:10;;;;;;;4.03;2.15;;;;;;;17.34;62.13;101940.34;5098792;28;20020;-65
2022/07/27 07:03:35;;;;;;;4.80;1.85;;;;;;;17.52;60.95;101948.88;5091571;28;20024;-66
2022/07/27 07:06:01;;;;;;;7.68;2.13;;;;;;;17.68;60.00;101962.91;5093005;28;20069;-66
2022/07/27 07:08:26;;;;;;;7.22;2.65;;;;;;;17.77;59.84;101955.97;5093148;28;20073;-65
2022/07/27 07:10:52;;;;;;;5.68;2.15;;;;;;;17.86;58.78;101963.38;5091203;28;20059;-66
2022/07/27 07:13:17;;;;;;;5.20;1.60;;;;;;;17.99;58.99;101960.59;5092835;28;20040;-65
2022/07/27 07:15:43;;;;;;;6.72;2.03;;;;;;;18.15;58.27;101960.28;5093324;28;20110;-66
2022/07/27 07:18:10;;;;;;;5.20;1.80;;;;;;;18.17;58.26;101963.69;5093217;28;20547;-66
2022/07/27 07:20:38;;;;;;;5.10;1.63;;;;;;;18.27;57.81;101964.72;5098870;28;20040;-65
2022/07/27 07:23:05;;;;;;;3.17;1.83;;;;;;;18.38;58.45;101962.03;5099237;27;20072;-65
2022/07/27 07:25:31;;;;;;;5.63;1.80;;;;;;;18.50;56.82;101959.34;5094475;28;20637;-65
2022/07/27 07:27:58;;;;;;;4.18;2.00;;;;;;;18.52;57.99;101968.16;5094513;28;20020;-65
2022/07/27 07:30:27;;;;;;;5.78;1.95;;;;;;;18.49;57.97;101960.34;5092682;28;20027;-65
2022/07/27 07:32:58;;;;;;;6.13;2.00;;;;;;;18.28;57.36;101968.25;5093388;28;20032;-66
2022/07/27 07:35:25;;;;;;;9.27;1.90;;;;;;;18.42;57.22;101959.97;5093133;28;20032;-66
2022/07/27 07:37:50;;;;;;;5.72;2.10;;;;;;;18.42;57.69;101961.81;5094432;28;20032;-65
2022/07/27 07:40:17;;;;;;;4.72;1.60;;;;;;;18.47;56.47;101973.94;5092413;28;20024;-65
2022/07/27 07:42:59;;;;;;;4.22;1.67;;;;;;;18.43;57.70;101961.66;5092621;28;20024;-66
2022/07/27 07:45:29;;;;;;;4.38;1.73;;;;;;;18.40;57.14;101959.22;5092962;28;20475;-66
2022/07/27 07:47:57;;;;;;;3.58;1.70;;;;;;;18.21;56.25;101964.34;5094155;28;20038;-65
2022/07/27 07:50:24;;;;;;;4.05;1.75;;;;;;;18.12;56.32;101974.00;5092785;28;20030;-65
2022/07/27 07:52:53;;;;;;;3.65;1.60;;;;;;;17.97;56.70;101976.03;5090210;28;20475;-66
2022/07/27 07:55:26;;;;;;;3.33;1.52;;;;;;;17.74;56.38;101969.66;5091692;28;20036;-66
2022/07/27 07:57:55;;;;;;;8.88;1.83;;;;;;;17.76;56.09;101977.59;5092912;28;20035;-65
2022/07/27 08:00:21;;;;;;;2.65;1.80;;;;;;;17.78;56.92;101970.31;5082310;28;20052;-65
2022/07/27 08:02:54;;;;;;;5.32;1.77;;;;;;;17.74;57.48;101974.19;5073377;28;20052;-65
2022/07/27 08:05:23;;;;;;;4.10;1.80;;;;;;;17.69;58.26;101971.81;5090454;28;20077;-65
2022/07/27 08:07:49;;;;;;;6.90;2.00;;;;;;;17.69;58.94;101980.75;5124258;27;20024;-66
2022/07/27 08:10:17;;;;;;;5.35;1.70;;;;;;;17.72;56.93;101990.44;5094053;28;20049;-65
2022/07/27 08:12:45;;;;;;;3.83;1.77;;;;;;;17.71;55.14;101991.41;5091647;28;20036;-65
2022/07/27 08:15:12;;;;;;;4.00;1.83;;;;;;;17.70;54.96;101995.06;5091803;28;20039;-65
2022/07/27 08:17:38;;;;;;;2.92;1.60;;;;;;;17.68;56.03;101994.34;5091587;28;20031;-65
2022/07/27 08:20:08;;;;;;;4.30;2.00;;;;;;;17.55;57.51;101988.13;5091456;28;20051;-66
2022/07/27 08:22:35;;;;;;;5.93;1.92;;;;;;;17.53;58.86;101992.75;5090744;28;20036;-66
2022/07/27 08:25:01;;;;;;;5.18;1.80;;;;;;;17.42;60.02;101996.28;5091689;28;20020;-65
2022/07/27 08:27:27;;;;;;;3.90;1.75;;;;;;;17.36;60.92;101994.88;5088720;28;20031;-65
2022/07/27 08:29:53;;;;;;;3.92;1.73;;;;;;;17.34;60.75;101982.53;5090334;28;20030;-66
2022/07/27 08:32:19;;;;;;;3.28;1.90;;;;;;;17.39;61.00;101978.53;5092150;28;20036;-65
2022/07/27 08:34:44;;;;;;;5.00;1.90;;;;;;;17.45;61.76;101983.44;5089135;28;20020;-66
2022/07/27 08:37:13;;;;;;;5.63;2.35;;;;;;;17.49;61.99;101981.38;5091714;28;20107;-65
2022/07/27 08:39:38;;;;;;;8.02;2.53;;;;;;;17.46;59.82;101979.78;5093514;28;20023;-65
2022/07/27 08:42:08;;;;;;;5.38;2.38;;;;;;;17.64;58.59;101982.91;5089610;28;20097;-65
2022/07/27 08:44:34;;;;;;;6.00;1.65;;;;;;;17.82;56.56;101975.31;5091574;28;20031;-65
2022/07/27 08:47:01;;;;;;;6.13;2.00;;;;;;;18.12;56.72;101969.47;5092072;28;20536;-66
2022/07/27 08:49:28;;;;;;;5.78;1.83;;;;;;;18.32;55.48;101981.38;5089271;28;20490;-65
2022/07/27 08:51:54;;;;;;;5.65;1.75;;;;;;;18.41;51.97;101984.31;5086530;28;20035;-65
2022/07/27 08:54:20;;;;;;;3.88;1.48;;;;;;;18.34;50.13;101983.94;5086665;28;20040;-66
2022/07/27 08:56:46;;;;;;;4.00;1.70;;;;;;;18.43;50.61;101979.69;5088862;28;20115;-66
2022/07/27 08:59:12;;;;;;;4.10;1.73;;;;;;;18.63;50.07;101986.19;5095354;28;20044;-65
2022/07/27 09:01:40;;;;;;;2.58;1.73;;;;;;;18.79;49.55;101984.88;5086467;28;20032;-67
2022/07/27 09:04:09;;;;;;;7.22;1.73;;;;;;;18.84;50.14;101987.22;5091447;28;20020;-65
2022/07/27 09:06:46;;;;;;;6.13;2.03;;;;;;;18.95;49.95;101992.59;5091429;28;20028;-65
2022/07/27 09:09:14;;;;;;;4.28;1.83;;;;;;;18.99;47.33;101995.91;5081979;28;20505;-65
2022/07/27 09:11:43;;;;;;;3.58;1.40;;;;;;;19.08;47.03;101994.31;5094439;28;20027;-67
2022/07/27 09:14:13;;;;;;;5.57;1.58;;;;;;;19.11;48.97;101991.34;5090824;28;20034;-65
2022/07/27 09:16:56;;;;;;;4.32;1.60;;;;;;;19.33;47.20;102002.13;5070053;28;20036;-66
2022/07/27 09:19:24;;;;;;;4.38;1.30;;;;;;;19.31;48.44;101990.59;5053260;28;20094;-66
2022/07/27 09:21:52;;;;;;;5.70;1.70;;;;;;;19.28;47.67;101991.69;5065889;28;20447;-65
2022/07/27 09:24:20;;;;;;;4.25;1.65;;;;;;;19.36;47.38;101992.94;5049455;28;20038;-67
2022/07/27 09:26:46;;;;;;;5.78;1.70;;;;;;;19.32;47.74;101996.84;5070930;28;20093;-66
2022/07/27 09:29:14;;;;;;;4.22;1.70;;;;;;;19.24;46.31;102002.88;5051607;28;20032;-66
2022/07/27 09:31:47;;;;;;;5.10;1.92;;;;;;;19.25;50.21;101994.66;5067187;28;20029;-66
2022/07/27 09:34:26;;;;;;;6.40;1.90;;;;;;;19.20;51.29;101988.75;5069689;28;20025;-66
2022/07/27 09:36:53;;;;;;;5.43;2.00;;;;;;;19.24;52.16;101990.25;5069973;28;20036;-66
2022/07/27 09:39:20;;;;;;;7.68;1.95;;;;;;;19.30;52.19;101991.59;5067418;28;20025;-66
2022/07/27 09:41:53;;;;;;;6.45;1.80;;;;;;;19.31;51.17;101995.13;5056071;28;20270;-65
2022/07/27 09:44:36;;;;;;;4.70;1.90;;;;;;;19.40;51.70;101988.97;5068105;28;20928;-66
2022/07/27 09:47:25;;;;;;;3.90;1.60;;;;;;;19.42;52.43;101995.13;5073375;28;20048;-67
2022/07/27 09:49:56;;;;;;;2.97;2.10;;;;;;;19.38;52.74;101997.19;5090609;28;20032;-66
2022/07/27 09:52:27;;;;;;;5.60;1.70;;;;;;;19.37;52.87;101994.63;5087011;28;20047;-65
2022/07/27 09:54:53;;;;;;;7.93;2.03;;;;;;;19.30;52.05;101986.19;5095309;28;20024;-66
2022/07/27 09:57:18;;;;;;;3.67;1.70;;;;;;;19.20;51.92;101979.81;5090635;28;20047;-66
2022/07/27 09:59:45;;;;;;;7.57;2.10;;;;;;;19.19;53.74;101987.06;5090852;28;20044;-65
2022/07/27 10:02:14;;;;;;;5.05;1.83;;;;;;;19.12;53.79;101999.34;5092318;28;20036;-65
2022/07/27 10:04:39;;;;;;;6.45;2.30;;;;;;;19.12;53.54;101998.47;5092721;28;20039;-66
2022/07/27 10:07:05;;;;;;;7.47;2.33;;;;;;;19.13;53.21;101989.41;5079870;28;20028;-65
2022/07/27 10:09:32;;;;;;;5.45;1.70;;;;;;;19.12;53.94;101991.25;5088069;28;20039;-65
2022/07/27 10:11:58;;;;;;;3.47;1.70;;;;;;;19.11;53.17;102003.00;5091786;28;20376;-65
2022/07/27 10:14:27;;;;;;;10.00;1.90;;;;;;;19.16;53.95;101992.69;5090532;28;20040;-67
2022/07/27 10:16:54;;;;;;;3.20;1.98;;;;;;;19.47;53.57;101990.19;5094440;28;20028;-65
2022/07/27 10:19:51;;;;;;;5.30;1.83;;;;;;;19.88;52.95;101994.00;5089222;28;20128;-65
2022/07/27 10:22:58;;;;;;;6.32;2.20;;;;;;;20.40;51.71;101993.09;5043433;28;20502;-67
2022/07/27 10:25:29;;;;;;;4.68;1.75;;;;;;;20.86;49.11;101994.53;5091060;28;20020;-65
2022/07/27 10:28:17;;;;;;;4.35;1.73;;;;;;;21.10;48.04;101987.94;5090492;28;20043;-65
2022/07/27 10:30:43;;;;;;;7.40;1.92;;;;;;;21.29;48.32;101982.53;5093737;28;20024;-66
2022/07/27 10:33:36;;;;;;;3.95;1.88;;;;;;;21.38;47.32;101971.91;5091715;28;20036;-67
2022/07/27 10:36:03;;;;;;;5.05;1.92;;;;;;;21.34;45.97;101971.31;5093156;28;20073;-65
2022/07/27 10:38:48;;;;;;;5.00;2.08;;;;;;;21.65;46.91;101980.25;5093043;28;20036;-66
2022/07/27 10:41:34;;;;;;;4.13;1.70;;;;;;;21.96;46.46;101975.50;5093676;28;20046;-65
2022/07/27 10:44:19;;;;;;;5.97;1.90;;;;;;;21.90;44.02;101976.09;5094355;28;20390;-65
2022/07/27 10:47:05;;;;;;;4.55;1.42;;;;;;;22.33;43.53;101973.94;5093133;28;20479;-65
2022/07/27 10:49:36;;;;;;;3.10;1.50;;;;;;;22.04;40.93;101968.53;5091323;28;20051;-65
2022/07/27 10:52:03;;;;;;;3.63;1.75;;;;;;;21.95;42.91;101967.53;5094739;28;20027;-65
2022/07/27 10:54:34;;;;;;;4.78;1.38;;;;;;;21.66;44.50;101962.97;5091966;28;20113;-65
2022/07/27 10:57:02;;;;;;;5.45;1.40;;;;;;;21.39;45.44;101957.41;5094220;28;20032;-66
2022/07/27 10:59:40;;;;;;;5.35;1.77;;;;;;;21.23;46.65;101964.16;5089288;28;20051;-65
2022/07/27 11:02:11;;;;;;;4.80;1.50;;;;;;;20.93;45.96;101970.50;5092130;28;20468;-66
2022/07/27 11:04:49;;;;;;;7.72;1.67;;;;;;;20.80;45.91;101968.03;5091558;28;20051;-66
2022/07/27 11:07:24;;;;;;;3.85;1.63;;;;;;;20.75;46.82;101967.56;5093245;28;20050;-65
2022/07/27 11:09:52;;;;;;;3.13;1.50;;;;;;;20.59;46.50;101965.38;5092407;28;20024;-65
2022/07/27 11:12:18;;;;;;;3.05;1.73;;;;;;;20.54;46.46;101961.38;5088444;28;20468;-66
2022/07/27 11:14:52;;;;;;;6.05;1.85;;;;;;;20.48;47.39;101972.69;5091054;28;20117;-66
2022/07/27 11:17:24;;;;;;;9.70;2.00;;;;;;;20.41;46.82;101966.94;5092459;28;20040;-66
2022/07/27 11:19:57;;;;;;;7.30;2.00;;;;;;;20.41;47.43;101980.44;5092000;28;20024;-66
2022/07/27 11:22:28;;;;;;;3.05;1.63;;;;;;;20.40;47.72;101973.34;5089550;28;20035;-66
2022/07/27 11:25:00;;;;;;;3.42;1.70;;;;;;;20.37;48.02;101965.50;5094135;28;20165;-66
2022/07/27 11:27:26;;;;;;;5.45;1.75;;;;;;;20.52;46.92;101960.59;5093163;28;20106;-66
2022/07/27 11:29:52;;;;;;;4.38;1.80;;;;;;;20.55;47.35;101966.63;5092815;28;20035;-66